createdAt,value
2023-05-01T00:03:58.753Z,13.80
2023-05-01T00:14:02.036Z,13.40
2023-05-01T00:24:05.635Z,12.40
2023-05-01T00:34:09.610Z,11.60
2023-05-01T00:44:12.679Z,13.30
2023-05-01T00:54:15.820Z,14.20
2023-05-01T01:04:18.904Z,12.60
2023-05-01T01:14:32.309Z,14.30
2023-05-01T01:25:00.652Z,14.50
2023-05-01T01:35:08.211Z,9.90
2023-05-01T01:45:22.492Z,10.30
2023-05-01T01:55:29.713Z,8.90
2023-05-01T02:15:40.439Z,12.80
2023-05-01T02:25:45.615Z,9.80
2023-05-01T02:35:48.771Z,10.60
2023-05-01T02:45:55.289Z,10.10
2023-05-01T02:55:59.477Z,9.80
2023-05-01T03:06:03.488Z,9.50
2023-05-01T03:16:06.918Z,8.40
2023-05-01T03:26:11.161Z,10.30
2023-05-01T03:36:14.380Z,10.90
2023-05-01T03:46:17.720Z,14.00
2023-05-01T03:56:21.546Z,15.50
2023-05-01T04:06:25.454Z,9.40
2023-05-01T04:16:28.895Z,9.20
2023-05-01T04:26:32.231Z,10.50
2023-05-01T04:36:37.250Z,9.20
2023-05-01T04:46:40.724Z,10.40
2023-05-01T04:56:43.924Z,15.70
2023-05-01T05:06:47.212Z,14.10
2023-05-01T05:16:53.002Z,10.20
2023-05-01T05:26:57.159Z,11.30
2023-05-01T05:37:00.348Z,14.40
2023-05-01T05:47:04.011Z,8.30
2023-05-01T05:57:09.746Z,10.10
2023-05-01T06:07:16.040Z,8.90
2023-05-01T06:17:19.151Z,10.20
2023-05-01T06:27:22.350Z,6.20
2023-05-01T06:37:25.637Z,7.30
2023-05-01T06:47:28.806Z,6.00
2023-05-01T06:57:31.966Z,6.00
2023-05-01T07:07:35.268Z,5.60
2023-05-01T07:17:38.618Z,6.00
2023-05-01T07:27:41.915Z,6.30
2023-05-01T07:37:45.182Z,5.30
2023-05-01T07:47:48.410Z,5.60
2023-05-01T07:57:51.666Z,6.10
2023-05-01T08:07:54.970Z,6.50
2023-05-01T08:17:58.105Z,5.50
2023-05-01T08:28:01.775Z,3.30
2023-05-01T08:38:04.933Z,4.70
2023-05-01T08:48:10.550Z,6.10
2023-05-01T08:58:15.460Z,5.40
2023-05-01T09:08:18.522Z,6.10
2023-05-01T09:18:21.826Z,6.00
2023-05-01T09:28:45.730Z,7.90
2023-05-01T09:38:49.010Z,4.60
2023-05-01T09:48:55.708Z,5.80
2023-05-01T09:59:15.545Z,5.40
2023-05-01T10:09:28.298Z,6.00
2023-05-01T10:19:31.881Z,9.30
2023-05-01T10:29:37.140Z,6.10
2023-05-01T10:39:40.847Z,5.00
2023-05-01T10:50:04.914Z,8.20
2023-05-01T11:00:08.256Z,6.50
2023-05-01T11:10:26.938Z,4.70
2023-05-01T11:20:35.972Z,4.60
2023-05-01T11:30:40.719Z,6.80
2023-05-01T11:40:44.204Z,5.40
2023-05-01T11:50:47.588Z,4.10
2023-05-01T12:00:51.099Z,5.30
2023-05-01T12:10:58.937Z,4.10
2023-05-01T12:21:02.318Z,4.90
2023-05-01T12:31:06.434Z,4.80
2023-05-01T12:41:12.313Z,5.70
2023-05-01T12:51:20.562Z,4.20
2023-05-01T13:01:30.263Z,6.70
2023-05-01T13:11:33.722Z,5.10
2023-05-01T13:21:48.153Z,12.10
2023-05-01T13:31:51.269Z,5.60
2023-05-01T13:41:54.946Z,5.10
2023-05-01T13:51:57.983Z,5.30
2023-05-01T14:02:01.384Z,5.20
2023-05-01T14:12:04.645Z,5.10
2023-05-01T14:22:08.293Z,5.30
2023-05-01T14:32:11.916Z,6.00
2023-05-01T14:42:15.145Z,6.30
2023-05-01T14:52:22.563Z,7.10
2023-05-01T15:02:25.876Z,5.00
2023-05-01T15:12:29.404Z,8.60
2023-05-01T15:22:32.684Z,10.70
2023-05-01T15:32:37.446Z,6.90
2023-05-01T15:42:40.989Z,6.40
2023-05-01T15:52:44.203Z,6.00
2023-05-01T16:03:14.078Z,8.30
2023-05-01T16:13:17.498Z,5.40
2023-05-01T16:23:22.125Z,10.80
2023-05-01T16:33:25.443Z,5.90
2023-05-01T16:43:29.910Z,9.90
2023-05-01T16:53:33.164Z,6.10
2023-05-01T17:03:37.160Z,7.90
2023-05-01T17:13:40.443Z,10.10
2023-05-01T17:23:43.808Z,8.40
2023-05-01T17:33:47.603Z,13.10
2023-05-01T17:43:50.973Z,10.80
2023-05-01T17:53:54.007Z,9.30
2023-05-01T18:03:57.995Z,17.50
2023-05-01T18:14:01.904Z,16.00
2023-05-01T18:24:05.523Z,22.30
2023-05-01T18:34:34.038Z,20.30
2023-05-01T18:54:40.263Z,29.90
2023-05-01T19:04:56.673Z,24.50
2023-05-01T19:15:00.426Z,28.30
2023-05-01T19:25:03.845Z,50.00
2023-05-01T19:35:11.745Z,39.70
2023-05-01T19:45:17.030Z,36.20
2023-05-01T19:55:21.488Z,38.40
2023-05-01T20:05:28.368Z,30.80
2023-05-01T20:15:31.948Z,31.30
2023-05-01T20:25:35.025Z,26.80
2023-05-01T20:35:38.569Z,29.10
2023-05-01T20:45:41.772Z,34.50
2023-05-01T20:55:45.857Z,30.50
2023-05-01T21:05:49.004Z,32.50
2023-05-01T21:15:52.784Z,28.30
2023-05-01T21:25:56.157Z,31.40
2023-05-01T21:35:59.661Z,27.50
2023-05-01T21:46:03.051Z,28.50
2023-05-01T21:56:07.084Z,23.80
2023-05-01T22:06:10.497Z,19.40
2023-05-01T22:16:14.766Z,20.70
2023-05-01T22:26:43.278Z,21.40
2023-05-01T22:36:46.554Z,22.10
2023-05-01T22:47:15.132Z,30.20
2023-05-01T22:57:18.741Z,26.80
2023-05-01T23:07:22.541Z,18.20
2023-05-01T23:17:31.321Z,15.90
2023-05-01T23:27:40.402Z,18.90
2023-05-01T23:37:44.057Z,16.80
2023-05-01T23:47:47.197Z,18.30
2023-05-01T23:57:50.232Z,13.30
